EPRZ/RZE METAR and TAF weather

Enter ICAO airport designator
Station Type Date Time Source
EPRZ METAR 2019/02/23 23:00 UTC NOAA

EPRZ 232300Z 24005KT CAVOK M03/M07 Q1040


Station Type Date Time Source
EPRZ Decoded METAR 2019/02/23 23:00 UTC NOAA

Rzeszow-Jasionka, Poland (EPRZ) 50-06N 022-03E 202M
Feb 23, 2019 - 06:00 PM EST / 2019.02.23 2300 UTC
Wind: from the WSW (240 degrees) at 6 MPH (5 KT):0
Visibility: greater than 7 mile(s):0
Temperature: 26 F (-3 C)
Windchill: 19 F (-7 C):1
Dew Point: 19 F (-7 C)
Relative Humidity: 73%
Pressure (altimeter): 30.71 in. Hg (1040 hPa)
ob: EPRZ 232300Z 24005KT CAVOK M03/M07 Q1040
cycle: 23

Station Type Date Time Source
EPRZ TAF 2019/02/23 18:33 UTC NOAA

TAF EPRZ 231730Z 2318/2418 33005KT CAVOK
BECMG 2405/2408 27010KT


Example: see airport list